Shin Chun — VRFD2 — position and weather

sailwx.info

Track history (hours):
 
Tides and Currents Weather Stations Pressure Air Temp Water Temp Dewpoint Dewpoint Depression Visibility Wind Speed Wind Dir Waves Ship Positions

Shin Chun

Last reported at 2016-May-06 05:28 UTC. Time now 2016-May-06 07:25 UTC.
Position N 24°13' E 119°58'.

Length 152 m; draft 6.1 m.

Type: Cargo ship. MMSI: 477218300.

Date/timePositionNaut miles runAvg speedWind from/ knotsBaromVisibWave heightAir tempDewpointWater temp
2016-May-06 05:28N 24°13' E 119°58'1314.0
2016-May-06 04:33N 24°01' E 119°58'1515.3
2016-May-06 03:33N 23°45' E 119°58'5415.8
2016-May-06 00:08N 22°51' E 120°03'813.9
2016-May-05 23:33N 22°44' E 120°08'1212.0
2016-May-05 22:33N 22°36' E 120°17'2 1.8
2016-May-05 21:29N 22°35' E 120°18'0 0.0
2016-May-05 20:29N 22°35' E 120°18'0 0.0
2016-May-05 19:29N 22°35' E 120°18'0 0.0
2016-May-05 18:29N 22°35' E 120°18'0 0.0
2016-May-05 17:29N 22°35' E 120°18'0 0.0
2016-May-05 16:05N 22°35' E 120°18'0 0.0
2016-May-05 15:23N 22°35' E 120°18'1 1.3
2016-May-05 14:33N 22°35' E 120°18'5 5.0
2016-May-05 13:33N 22°39' E 120°13'0 0.0
2016-May-05 12:28N 22°39' E 120°13'0 0.0
2016-May-05 11:28N 22°39' E 120°13'0 0.0
2016-May-05 10:28N 22°39' E 120°13'0 0.0
2016-May-05 09:28N 22°39' E 120°13'0 0.1
2016-May-05 08:28N 22°39' E 120°13'0 0.1
2016-May-05 07:28N 22°39' E 120°13'0 0.0
2016-May-05 06:28N 22°39' E 120°13'0 0.1
2016-May-05 05:28N 22°39' E 120°13'0 0.0
2016-May-05 04:28N 22°39' E 120°13'0 0.0
2016-May-05 03:22N 22°39' E 120°13'0 0.0
2016-May-05 02:28N 22°39' E 120°13'0 0.0
2016-May-05 01:28N 22°39' E 120°13'0 0.1
2016-May-05 00:28N 22°39' E 120°13'0 0.0
2016-May-04 23:34N 22°39' E 120°13'0 0.0
2016-May-04 22:33N 22°39' E 120°13'0 0.1
2016-May-04 21:27N 22°39' E 120°13'0 0.0
2016-May-04 20:33N 22°39' E 120°13'0 0.0
2016-May-04 19:27N 22°39' E 120°13'0 0.0
2016-May-04 18:33N 22°39' E 120°13'0 0.0
2016-May-04 17:33N 22°39' E 120°13'0 0.0
2016-May-04 16:27N 22°39' E 120°13'0 0.0
2016-May-04 15:33N 22°39' E 120°13'0 0.0
2016-May-04 14:33N 22°39' E 120°13'0 0.0
2016-May-04 13:33N 22°39' E 120°13'0 0.0
2016-May-04 12:33N 22°39' E 120°13'0 0.1
2016-May-04 11:33N 22°39' E 120°14'0 0.0
2016-May-04 10:33N 22°39' E 120°14'0 0.0
2016-May-04 09:30N 22°39' E 120°14'0 0.0
2016-May-04 08:30N 22°39' E 120°14'0 0.0
2016-May-04 07:30N 22°39' E 120°14'0 0.0
2016-May-04 05:30N 22°39' E 120°14'0 0.0
2016-May-04 04:30N 22°39' E 120°14'0 0.1
2016-May-04 03:30N 22°39' E 120°13'0 0.1
2016-May-04 02:30N 22°39' E 120°13'0 0.1
2016-May-04 01:24N 22°39' E 120°13'0 0.0
2016-May-04 00:33N 22°39' E 120°13'0 0.0
2016-May-03 23:33N 22°39' E 120°13'0 0.0
2016-May-03 22:33N 22°39' E 120°13'0 0.0
2016-May-03 21:33N 22°39' E 120°13'0 0.0
2016-May-03 20:33N 22°39' E 120°13'0 0.0
2016-May-03 19:33N 22°39' E 120°13'0 0.0
2016-May-03 18:33N 22°39' E 120°13'0 0.0
2016-May-03 17:27N 22°39' E 120°13'0 0.0
2016-May-03 16:33N 22°39' E 120°13'0 0.0
2016-May-03 15:33N 22°39' E 120°13'0 0.0
2016-May-03 14:33N 22°39' E 120°13'0 0.0
2016-May-03 13:27N 22°39' E 120°13'0 0.0
2016-May-03 12:21N 22°39' E 120°13'0 0.0
2016-May-03 11:33N 22°39' E 120°13'0 0.0
2016-May-03 10:33N 22°39' E 120°13'0 0.1
2016-May-03 09:33N 22°39' E 120°14'0 0.0
2016-May-03 08:32N 22°39' E 120°14'0 0.0
2016-May-03 07:26N 22°39' E 120°14'0 0.0
2016-May-03 06:32N 22°39' E 120°14'0 0.0
2016-May-03 05:32N 22°39' E 120°14'0 0.0
2016-May-03 04:32N 22°39' E 120°14'0 0.1
2016-May-03 03:32N 22°39' E 120°13'0 0.0
2016-May-03 02:32N 22°39' E 120°13'0 0.0
2016-May-03 01:32N 22°39' E 120°13'0 0.0
2016-May-03 00:32N 22°39' E 120°13'0 0.0
2016-May-02 23:33N 22°39' E 120°13'5 5.4
2016-May-02 22:33N 22°35' E 120°18'0 0.3
2016-May-02 21:33N 22°35' E 120°18'0 0.0
2016-May-02 20:33N 22°35' E 120°18'0 0.0
2016-May-02 19:33N 22°35' E 120°18'0 0.0
2016-May-02 18:33N 22°35' E 120°18'0 0.0
2016-May-02 17:33N 22°35' E 120°18'9 8.6
2016-May-02 16:33N 22°40' E 120°11'20313.1
2016-May-02 01:05N 26°02' E 119°51'1811.4
2016-May-01 23:33N 26°06' E 119°32'6 6.1
2016-May-01 22:33N 26°00' E 119°29'0 0.0
2016-May-01 21:32N 26°00' E 119°29'0 0.0
2016-May-01 20:32N 26°00' E 119°29'0 0.0
2016-May-01 19:32N 26°00' E 119°29'0 0.0
2016-May-01 18:32N 26°00' E 119°29'0 0.0
2016-May-01 17:32N 26°00' E 119°29'0 0.0
2016-May-01 16:20N 26°00' E 119°29'0 0.0
2016-May-01 15:32N 26°00' E 119°29'0 0.0
2016-May-01 14:26N 26°00' E 119°29'0 0.0
2016-May-01 11:26N 26°00' E 119°29'0 0.0
2016-May-01 10:32N 26°00' E 119°29'0 0.0
2016-May-01 09:20N 26°00' E 119°29'0 0.0
2016-May-01 08:32N 26°00' E 119°29'0 0.0
2016-May-01 07:32N 26°00' E 119°29'0 0.0
2016-May-01 06:32N 26°00' E 119°29'0 0.0
2016-May-01 05:32N 26°00' E 119°29'0 0.0
2016-May-01 04:32N 26°00' E 119°29'0 0.0
2016-May-01 03:32N 26°00' E 119°29'0 0.0
2016-May-01 02:31N 26°00' E 119°29'0 0.0
2016-May-01 01:31N 26°00' E 119°29'1 0.5
2016-May-01 00:33N 26°01' E 119°29'13 6.5
2016-Apr-30 22:32N 26°06' E 119°43'16610.1
2016-Apr-30 06:04N 23°20' E 119°57'3815.3
2016-Apr-30 03:33N 22°43' E 120°07'1211.9
2016-Apr-30 02:34N 22°36' E 120°17'1 0.5
2016-Apr-30 00:23N 22°35' E 120°18'0 0.0
2016-Apr-29 23:23N 22°35' E 120°18'0 0.0
2016-Apr-29 21:05N 22°35' E 120°18'0 0.0
2016-Apr-29 20:17N 22°35' E 120°18'0 0.0
2016-Apr-29 18:33N 22°35' E 120°18'7 7.0
2016-Apr-29 17:33N 22°38' E 120°11'1 1.0
2016-Apr-29 16:29N 22°38' E 120°10'5 5.8
2016-Apr-29 15:33N 22°42' E 120°06'4413.7
2016-Apr-29 12:21N 23°07' E 119°27'1615.2
2016-Apr-29 11:20N 23°18' E 119°16'7013.7
2016-Apr-29 06:12N 24°08' E 118°22'912.9
2016-Apr-29 05:32N 24°15' E 118°16'1312.8
2016-Apr-29 04:33N 24°24' E 118°06'7 6.7
2016-Apr-29 03:33N 24°30' E 118°05'0 0.0
2016-Apr-29 02:33N 24°30' E 118°05'0 0.0
2016-Apr-29 01:30N 24°30' E 118°05'0 0.0
2016-Apr-29 00:33N 24°30' E 118°05'0 0.0
2016-Apr-28 23:27N 24°30' E 118°05'0 0.0
2016-Apr-28 22:27N 24°30' E 118°05'0 0.0
2016-Apr-28 21:33N 24°30' E 118°05'0 0.0
2016-Apr-28 20:33N 24°30' E 118°05'0 0.0
2016-Apr-28 19:33N 24°30' E 118°05'0 0.0
2016-Apr-28 18:30N 24°30' E 118°05'0 0.0
2016-Apr-28 17:33N 24°30' E 118°05'0 0.0
2016-Apr-28 16:30N 24°30' E 118°05'0 0.0
2016-Apr-28 15:30N 24°30' E 118°05'0 0.0
2016-Apr-28 14:33N 24°30' E 118°05'1 0.6
2016-Apr-28 13:33N 24°30' E 118°04'9 9.5
2016-Apr-28 12:33N 24°22' E 118°09'1413.9
2016-Apr-28 11:33N 24°21' E 118°24'1915.5
2016-Apr-28 10:19N 24°27' E 118°44'1216.1
2016-Apr-28 09:33N 24°31' E 118°57'1615.8
2016-Apr-28 08:33N 24°38' E 119°13'1615.4
2016-Apr-28 07:31N 24°43' E 119°29'126 4.1
2016-Apr-27 00:33N 22°42' E 120°10'1110.3
2016-Apr-26 23:31N 22°35' E 120°18'0 0.0
2016-Apr-26 22:31N 22°35' E 120°18'0 0.0
2016-Apr-26 21:31N 22°35' E 120°18'0 0.0
2016-Apr-26 20:25N 22°35' E 120°18'0 0.0
2016-Apr-26 19:31N 22°35' E 120°18'0 0.0
2016-Apr-26 12:23N 22°35' E 120°18'4 5.0
2016-Apr-26 11:34N 22°37' E 120°15'2 1.4
2016-Apr-26 10:29N 22°38' E 120°14'0 0.1
2016-Apr-26 09:29N 22°38' E 120°14'0 0.0
2016-Apr-26 08:29N 22°38' E 120°14'0 0.0
2016-Apr-26 07:29N 22°38' E 120°14'0 0.1
2016-Apr-26 06:29N 22°38' E 120°14'0 0.0
2016-Apr-26 05:29N 22°38' E 120°14'  
Track history (hours):
 
Tides and Currents Weather Stations Pressure Air Temp Water Temp Dewpoint Dewpoint Depression Visibility Wind Speed Wind Dir Waves Ship Positions

Shin Chun

Last reported at 2016-May-06 05:28 UTC. Time now 2016-May-06 07:25 UTC.
Position N 24°13' E 119°58'.

Length 152 m; draft 6.1 m.

Type: Cargo ship. MMSI: 477218300.

Date/timePositionNaut miles runAvg speedWind from/ knotsBaromVisibWave heightAir tempDewpointWater temp
2016-May-06 05:28N 24°13' E 119°58'1314.0
2016-May-06 04:33N 24°01' E 119°58'1515.3
2016-May-06 03:33N 23°45' E 119°58'5415.8
2016-May-06 00:08N 22°51' E 120°03'813.9
2016-May-05 23:33N 22°44' E 120°08'1212.0
2016-May-05 22:33N 22°36' E 120°17'2 1.8
2016-May-05 21:29N 22°35' E 120°18'0 0.0
2016-May-05 20:29N 22°35' E 120°18'0 0.0
2016-May-05 19:29N 22°35' E 120°18'0 0.0
2016-May-05 18:29N 22°35' E 120°18'0 0.0
2016-May-05 17:29N 22°35' E 120°18'0 0.0
2016-May-05 16:05N 22°35' E 120°18'0 0.0
2016-May-05 15:23N 22°35' E 120°18'1 1.3
2016-May-05 14:33N 22°35' E 120°18'5 5.0
2016-May-05 13:33N 22°39' E 120°13'0 0.0
2016-May-05 12:28N 22°39' E 120°13'0 0.0
2016-May-05 11:28N 22°39' E 120°13'0 0.0
2016-May-05 10:28N 22°39' E 120°13'0 0.0
2016-May-05 09:28N 22°39' E 120°13'0 0.1
2016-May-05 08:28N 22°39' E 120°13'0 0.1
2016-May-05 07:28N 22°39' E 120°13'0 0.0
2016-May-05 06:28N 22°39' E 120°13'0 0.1
2016-May-05 05:28N 22°39' E 120°13'0 0.0
2016-May-05 04:28N 22°39' E 120°13'0 0.0
2016-May-05 03:22N 22°39' E 120°13'0 0.0
2016-May-05 02:28N 22°39' E 120°13'0 0.0
2016-May-05 01:28N 22°39' E 120°13'0 0.1
2016-May-05 00:28N 22°39' E 120°13'0 0.0
2016-May-04 23:34N 22°39' E 120°13'0 0.0
2016-May-04 22:33N 22°39' E 120°13'0 0.1
2016-May-04 21:27N 22°39' E 120°13'0 0.0
2016-May-04 20:33N 22°39' E 120°13'0 0.0
2016-May-04 19:27N 22°39' E 120°13'0 0.0
2016-May-04 18:33N 22°39' E 120°13'0 0.0
2016-May-04 17:33N 22°39' E 120°13'0 0.0
2016-May-04 16:27N 22°39' E 120°13'0 0.0
2016-May-04 15:33N 22°39' E 120°13'0 0.0
2016-May-04 14:33N 22°39' E 120°13'0 0.0
2016-May-04 13:33N 22°39' E 120°13'0 0.0
2016-May-04 12:33N 22°39' E 120°13'0 0.1
2016-May-04 11:33N 22°39' E 120°14'0 0.0
2016-May-04 10:33N 22°39' E 120°14'0 0.0
2016-May-04 09:30N 22°39' E 120°14'0 0.0
2016-May-04 08:30N 22°39' E 120°14'0 0.0
2016-May-04 07:30N 22°39' E 120°14'0 0.0
2016-May-04 05:30N 22°39' E 120°14'0 0.0
2016-May-04 04:30N 22°39' E 120°14'0 0.1
2016-May-04 03:30N 22°39' E 120°13'0 0.1
2016-May-04 02:30N 22°39' E 120°13'0 0.1
2016-May-04 01:24N 22°39' E 120°13'0 0.0
2016-May-04 00:33N 22°39' E 120°13'0 0.0
2016-May-03 23:33N 22°39' E 120°13'0 0.0
2016-May-03 22:33N 22°39' E 120°13'0 0.0
2016-May-03 21:33N 22°39' E 120°13'0 0.0
2016-May-03 20:33N 22°39' E 120°13'0 0.0
2016-May-03 19:33N 22°39' E 120°13'0 0.0
2016-May-03 18:33N 22°39' E 120°13'0 0.0
2016-May-03 17:27N 22°39' E 120°13'0 0.0
2016-May-03 16:33N 22°39' E 120°13'0 0.0
2016-May-03 15:33N 22°39' E 120°13'0 0.0
2016-May-03 14:33N 22°39' E 120°13'0 0.0
2016-May-03 13:27N 22°39' E 120°13'0 0.0
2016-May-03 12:21N 22°39' E 120°13'0 0.0
2016-May-03 11:33N 22°39' E 120°13'0 0.0
2016-May-03 10:33N 22°39' E 120°13'0 0.1
2016-May-03 09:33N 22°39' E 120°14'0 0.0
2016-May-03 08:32N 22°39' E 120°14'0 0.0
2016-May-03 07:26N 22°39' E 120°14'0 0.0
2016-May-03 06:32N 22°39' E 120°14'0 0.0
2016-May-03 05:32N 22°39' E 120°14'0 0.0
2016-May-03 04:32N 22°39' E 120°14'0 0.1
2016-May-03 03:32N 22°39' E 120°13'0 0.0
2016-May-03 02:32N 22°39' E 120°13'0 0.0
2016-May-03 01:32N 22°39' E 120°13'0 0.0
2016-May-03 00:32N 22°39' E 120°13'0 0.0
2016-May-02 23:33N 22°39' E 120°13'5 5.4
2016-May-02 22:33N 22°35' E 120°18'0 0.3
2016-May-02 21:33N 22°35' E 120°18'0 0.0
2016-May-02 20:33N 22°35' E 120°18'0 0.0
2016-May-02 19:33N 22°35' E 120°18'0 0.0
2016-May-02 18:33N 22°35' E 120°18'0 0.0
2016-May-02 17:33N 22°35' E 120°18'9 8.6
2016-May-02 16:33N 22°40' E 120°11'20313.1
2016-May-02 01:05N 26°02' E 119°51'1811.4
2016-May-01 23:33N 26°06' E 119°32'6 6.1
2016-May-01 22:33N 26°00' E 119°29'0 0.0
2016-May-01 21:32N 26°00' E 119°29'0 0.0
2016-May-01 20:32N 26°00' E 119°29'0 0.0
2016-May-01 19:32N 26°00' E 119°29'0 0.0
2016-May-01 18:32N 26°00' E 119°29'0 0.0
2016-May-01 17:32N 26°00' E 119°29'0 0.0
2016-May-01 16:20N 26°00' E 119°29'0 0.0
2016-May-01 15:32N 26°00' E 119°29'0 0.0
2016-May-01 14:26N 26°00' E 119°29'0 0.0
2016-May-01 11:26N 26°00' E 119°29'0 0.0
2016-May-01 10:32N 26°00' E 119°29'0 0.0
2016-May-01 09:20N 26°00' E 119°29'0 0.0
2016-May-01 08:32N 26°00' E 119°29'0 0.0
2016-May-01 07:32N 26°00' E 119°29'0 0.0
2016-May-01 06:32N 26°00' E 119°29'0 0.0
2016-May-01 05:32N 26°00' E 119°29'0 0.0
2016-May-01 04:32N 26°00' E 119°29'0 0.0
2016-May-01 03:32N 26°00' E 119°29'0 0.0
2016-May-01 02:31N 26°00' E 119°29'0 0.0
2016-May-01 01:31N 26°00' E 119°29'1 0.5
2016-May-01 00:33N 26°01' E 119°29'13 6.5
2016-Apr-30 22:32N 26°06' E 119°43'16610.1
2016-Apr-30 06:04N 23°20' E 119°57'3815.3
2016-Apr-30 03:33N 22°43' E 120°07'1211.9
2016-Apr-30 02:34N 22°36' E 120°17'1 0.5
2016-Apr-30 00:23N 22°35' E 120°18'0 0.0
2016-Apr-29 23:23N 22°35' E 120°18'0 0.0
2016-Apr-29 21:05N 22°35' E 120°18'0 0.0
2016-Apr-29 20:17N 22°35' E 120°18'0 0.0
2016-Apr-29 18:33N 22°35' E 120°18'7 7.0
2016-Apr-29 17:33N 22°38' E 120°11'1 1.0
2016-Apr-29 16:29N 22°38' E 120°10'5 5.8
2016-Apr-29 15:33N 22°42' E 120°06'4413.7
2016-Apr-29 12:21N 23°07' E 119°27'1615.2
2016-Apr-29 11:20N 23°18' E 119°16'7013.7
2016-Apr-29 06:12N 24°08' E 118°22'912.9
2016-Apr-29 05:32N 24°15' E 118°16'1312.8
2016-Apr-29 04:33N 24°24' E 118°06'7 6.7
2016-Apr-29 03:33N 24°30' E 118°05'0 0.0
2016-Apr-29 02:33N 24°30' E 118°05'0 0.0
2016-Apr-29 01:30N 24°30' E 118°05'0 0.0
2016-Apr-29 00:33N 24°30' E 118°05'0 0.0
2016-Apr-28 23:27N 24°30' E 118°05'0 0.0
2016-Apr-28 22:27N 24°30' E 118°05'0 0.0
2016-Apr-28 21:33N 24°30' E 118°05'0 0.0
2016-Apr-28 20:33N 24°30' E 118°05'0 0.0
2016-Apr-28 19:33N 24°30' E 118°05'0 0.0
2016-Apr-28 18:30N 24°30' E 118°05'0 0.0
2016-Apr-28 17:33N 24°30' E 118°05'0 0.0
2016-Apr-28 16:30N 24°30' E 118°05'0 0.0
2016-Apr-28 15:30N 24°30' E 118°05'0 0.0
2016-Apr-28 14:33N 24°30' E 118°05'1 0.6
2016-Apr-28 13:33N 24°30' E 118°04'9 9.5
2016-Apr-28 12:33N 24°22' E 118°09'1413.9
2016-Apr-28 11:33N 24°21' E 118°24'1915.5
2016-Apr-28 10:19N 24°27' E 118°44'1216.1
2016-Apr-28 09:33N 24°31' E 118°57'1615.8
2016-Apr-28 08:33N 24°38' E 119°13'1615.4
2016-Apr-28 07:31N 24°43' E 119°29'126 4.1
2016-Apr-27 00:33N 22°42' E 120°10'1110.3
2016-Apr-26 23:31N 22°35' E 120°18'0 0.0
2016-Apr-26 22:31N 22°35' E 120°18'0 0.0
2016-Apr-26 21:31N 22°35' E 120°18'0 0.0
2016-Apr-26 20:25N 22°35' E 120°18'0 0.0
2016-Apr-26 19:31N 22°35' E 120°18'0 0.0
2016-Apr-26 12:23N 22°35' E 120°18'4 5.0
2016-Apr-26 11:34N 22°37' E 120°15'2 1.4
2016-Apr-26 10:29N 22°38' E 120°14'0 0.1
2016-Apr-26 09:29N 22°38' E 120°14'0 0.0
2016-Apr-26 08:29N 22°38' E 120°14'0 0.0
2016-Apr-26 07:29N 22°38' E 120°14'0 0.1
2016-Apr-26 06:29N 22°38' E 120°14'0 0.0
2016-Apr-26 05:29N 22°38' E 120°14'  

Dump ship's entire track history